createdAt,value
2019-04-27T00:00:47.089Z,68.70
2019-04-27T00:03:26.868Z,69.00
2019-04-27T00:05:57.848Z,69.00
2019-04-27T00:08:35.201Z,69.20
2019-04-27T00:11:06.836Z,69.40
2019-04-27T00:13:40.658Z,70.00
2019-04-27T00:16:11.159Z,70.00
2019-04-27T00:18:45.147Z,70.20
2019-04-27T00:21:20.265Z,70.40
2019-04-27T00:23:53.185Z,71.10
2019-04-27T00:26:23.308Z,70.70
2019-04-27T00:28:53.775Z,71.20
2019-04-27T00:31:26.411Z,71.30
2019-04-27T00:33:56.003Z,71.80
2019-04-27T00:36:27.083Z,71.90
2019-04-27T00:38:58.527Z,71.80
2019-04-27T00:41:27.761Z,72.00
2019-04-27T00:43:56.132Z,72.10
2019-04-27T00:46:27.054Z,72.30
2019-04-27T00:48:58.221Z,72.20
2019-04-27T00:51:28.598Z,72.30
2019-04-27T00:53:57.102Z,72.60
2019-04-27T00:56:30.753Z,72.50
2019-04-27T00:59:07.697Z,72.70
2019-04-27T01:01:44.586Z,72.90
2019-04-27T01:04:30.698Z,72.80
2019-04-27T01:06:59.467Z,72.80
2019-04-27T01:09:30.488Z,72.90
2019-04-27T01:12:03.625Z,72.70
2019-04-27T01:14:34.306Z,74.10
2019-04-27T01:17:03.128Z,73.20
2019-04-27T01:19:32.018Z,73.40
2019-04-27T01:22:01.276Z,73.60
2019-04-27T01:24:30.524Z,73.80
2019-04-27T01:27:22.067Z,74.20
2019-04-27T01:29:51.979Z,74.10
2019-04-27T01:32:21.413Z,73.90
2019-04-27T01:34:52.276Z,74.00
2019-04-27T01:37:24.081Z,73.80
2019-04-27T01:39:53.139Z,73.80
2019-04-27T01:42:23.131Z,73.60
2019-04-27T01:44:52.368Z,73.50
2019-04-27T01:47:21.899Z,73.40
2019-04-27T01:49:52.539Z,73.40
2019-04-27T01:52:21.230Z,73.60
2019-04-27T01:54:49.916Z,74.70
2019-04-27T01:57:19.394Z,74.00
2019-04-27T01:59:49.248Z,74.00
2019-04-27T02:02:29.254Z,74.40
2019-04-27T02:05:15.356Z,74.30
2019-04-27T02:07:45.178Z,74.60
2019-04-27T02:10:15.002Z,74.60
2019-04-27T02:12:44.643Z,74.60
2019-04-27T02:15:14.022Z,74.70
2019-04-27T02:17:45.528Z,74.90
2019-04-27T02:20:14.767Z,75.10
2019-04-27T02:22:43.279Z,75.20
2019-04-27T02:25:12.501Z,75.40
2019-04-27T02:27:42.682Z,75.10
2019-04-27T02:30:30.609Z,75.20
2019-04-27T02:33:09.805Z,75.20
2019-04-27T02:35:39.495Z,75.20
2019-04-27T02:38:10.135Z,74.80
2019-04-27T02:40:52.111Z,74.50
2019-04-27T02:43:22.788Z,74.90
2019-04-27T02:45:53.919Z,75.30
2019-04-27T02:48:23.315Z,75.50
2019-04-27T02:50:53.681Z,75.50
2019-04-27T02:53:40.027Z,75.70
2019-04-27T02:56:13.984Z,76.80
2019-04-27T02:58:42.486Z,75.90
2019-04-27T03:01:10.815Z,75.80
2019-04-27T03:03:41.442Z,76.10
2019-04-27T03:06:09.914Z,76.30
2019-04-27T03:08:42.734Z,76.50
2019-04-27T03:11:11.534Z,76.40
2019-04-27T03:13:43.831Z,76.50
2019-04-27T03:16:17.364Z,76.80
2019-04-27T03:18:50.848Z,77.20
2019-04-27T03:21:21.075Z,77.40
2019-04-27T03:23:50.112Z,77.80
2019-04-27T03:26:22.972Z,77.80
2019-04-27T03:28:52.530Z,77.90
2019-04-27T03:31:21.993Z,78.20
2019-04-27T03:33:55.122Z,78.40
2019-04-27T03:36:21.651Z,79.10
2019-04-27T03:38:51.882Z,79.70
2019-04-27T03:41:20.317Z,79.50
2019-04-27T03:43:52.655Z,80.10
2019-04-27T03:46:21.668Z,80.40
2019-04-27T03:48:51.986Z,80.50
2019-04-27T03:51:22.461Z,80.90
2019-04-27T03:54:10.720Z,81.20
2019-04-27T03:56:44.215Z,81.70
2019-04-27T03:59:14.488Z,81.20
2019-04-27T04:01:42.839Z,81.70
2019-04-27T04:04:15.539Z,82.30
2019-04-27T04:06:43.887Z,82.90
2019-04-27T04:09:12.937Z,83.80
2019-04-27T04:11:49.365Z,84.80
2019-04-27T04:14:20.244Z,85.20
2019-04-27T04:16:50.543Z,85.40
2019-04-27T04:19:19.687Z,86.50
2019-04-27T04:21:50.387Z,85.80
2019-04-27T04:24:19.983Z,85.70
2019-04-27T04:26:50.372Z,87.10
2019-04-27T04:29:20.406Z,86.50
2019-04-27T04:31:50.344Z,86.50
2019-04-27T04:34:20.166Z,87.50
2019-04-27T04:36:50.428Z,87.80
2019-04-27T04:39:21.776Z,87.80
2019-04-27T04:42:10.853Z,89.20
2019-04-27T04:44:41.562Z,90.00
2019-04-27T04:47:19.486Z,90.10
2019-04-27T04:49:54.587Z,90.10
2019-04-27T04:52:19.694Z,90.20
2019-04-27T04:54:49.591Z,90.10
2019-04-27T04:57:19.507Z,90.30
2019-04-27T04:59:51.331Z,89.90
2019-04-27T05:02:19.794Z,90.30
2019-04-27T05:04:49.166Z,90.30
2019-04-27T05:07:19.453Z,90.30
2019-04-27T05:09:48.553Z,90.20
2019-04-27T05:12:19.018Z,89.10
2019-04-27T05:14:48.920Z,90.30
2019-04-27T05:17:19.608Z,90.00
2019-04-27T05:19:49.097Z,90.20
2019-04-27T05:22:19.526Z,90.30
2019-04-27T05:24:49.631Z,89.80
2019-04-27T05:27:19.136Z,89.10
2019-04-27T05:29:49.125Z,90.10
2019-04-27T05:32:19.301Z,89.70
2019-04-27T05:34:49.564Z,90.10
2019-04-27T05:37:27.566Z,90.00
2019-04-27T05:39:48.719Z,90.30
2019-04-27T05:42:20.025Z,89.30
2019-04-27T05:45:03.939Z,90.10
2019-04-27T05:47:39.173Z,89.70
2019-04-27T05:50:09.342Z,89.60
2019-04-27T05:52:38.666Z,90.00
2019-04-27T05:55:11.394Z,90.10
2019-04-27T05:57:40.002Z,89.70
2019-04-27T06:00:09.334Z,89.90
2019-04-27T06:02:39.722Z,89.10
2019-04-27T06:05:10.786Z,88.20
2019-04-27T06:07:42.553Z,88.60
2019-04-27T06:10:16.480Z,88.60
2019-04-27T06:12:45.422Z,88.70
2019-04-27T06:15:19.858Z,88.40
2019-04-27T06:17:49.770Z,88.90
2019-04-27T06:20:19.056Z,87.80
2019-04-27T06:22:48.926Z,88.40
2019-04-27T06:25:26.654Z,88.30
2019-04-27T06:28:02.800Z,89.10
2019-04-27T06:30:31.394Z,89.70
2019-04-27T06:33:00.369Z,89.50
2019-04-27T06:35:32.520Z,90.30
2019-04-27T06:38:05.200Z,90.60
2019-04-27T06:40:39.151Z,90.00
2019-04-27T06:43:15.201Z,90.80
2019-04-27T06:45:42.702Z,90.90
2019-04-27T06:48:15.070Z,90.90
2019-04-27T06:50:50.227Z,90.70
2019-04-27T06:53:19.771Z,90.80
2019-04-27T06:55:50.068Z,91.50
2019-04-27T06:58:21.707Z,91.40
2019-04-27T07:00:50.556Z,91.30
2019-04-27T07:03:22.294Z,91.00
2019-04-27T07:05:52.877Z,91.10
2019-04-27T07:08:25.170Z,91.00
2019-04-27T07:10:59.268Z,90.40
2019-04-27T07:13:29.163Z,91.00
2019-04-27T07:15:59.687Z,90.60
2019-04-27T07:18:29.503Z,91.10
2019-04-27T07:20:58.953Z,90.30
2019-04-27T07:23:29.302Z,90.40
2019-04-27T07:25:59.908Z,90.30
2019-04-27T07:28:30.539Z,90.10
2019-04-27T07:31:01.610Z,90.10
2019-04-27T07:33:34.502Z,89.90
2019-04-27T07:36:09.491Z,88.80
2019-04-27T07:38:39.495Z,86.60
2019-04-27T07:41:09.706Z,87.00
2019-04-27T07:44:00.188Z,85.90
2019-04-27T07:46:30.419Z,85.60
2019-04-27T07:49:06.705Z,83.20
2019-04-27T07:51:39.417Z,82.90
2019-04-27T07:54:09.483Z,84.40
2019-04-27T07:56:46.457Z,84.30
2019-04-27T07:59:18.945Z,83.10
2019-04-27T08:01:49.199Z,84.20
2019-04-27T08:04:21.002Z,80.10
2019-04-27T08:06:50.214Z,81.50
2019-04-27T08:09:22.574Z,80.80
2019-04-27T08:11:52.745Z,82.30
2019-04-27T08:14:21.709Z,81.50
2019-04-27T08:16:53.205Z,81.20
2019-04-27T08:19:25.179Z,82.00
2019-04-27T08:21:54.591Z,81.60
2019-04-27T08:24:24.262Z,79.90
2019-04-27T08:27:00.717Z,78.90
2019-04-27T08:29:33.039Z,76.30
2019-04-27T08:32:04.764Z,73.80
2019-04-27T08:34:35.365Z,70.50
2019-04-27T08:37:04.139Z,69.40
2019-04-27T08:39:34.428Z,70.00
2019-04-27T08:42:04.805Z,72.00
2019-04-27T08:44:34.500Z,70.60
2019-04-27T08:47:04.497Z,71.00
2019-04-27T08:49:32.424Z,72.20
2019-04-27T08:52:02.526Z,71.40
2019-04-27T08:54:30.949Z,69.40
2019-04-27T08:57:01.702Z,69.50
2019-04-27T08:59:30.896Z,67.70
2019-04-27T09:01:59.502Z,70.20
2019-04-27T09:04:29.605Z,69.80
2019-04-27T09:06:59.753Z,69.00
2019-04-27T09:09:31.324Z,67.00
2019-04-27T09:12:01.603Z,65.60
2019-04-27T09:14:35.539Z,63.80
2019-04-27T09:17:09.645Z,63.20
2019-04-27T09:19:40.374Z,64.50
2019-04-27T09:22:16.339Z,66.90
2019-04-27T09:24:44.855Z,67.90
2019-04-27T09:27:17.188Z,68.60
2019-04-27T09:29:47.047Z,68.80
2019-04-27T09:32:16.734Z,67.80
2019-04-27T09:34:49.407Z,66.70
2019-04-27T09:37:20.056Z,68.90
2019-04-27T09:39:52.495Z,71.10
2019-04-27T09:42:27.586Z,70.80
2019-04-27T09:45:04.103Z,70.00
2019-04-27T09:47:39.158Z,70.20
2019-04-27T09:50:08.134Z,69.90
2019-04-27T09:52:38.252Z,70.50
2019-04-27T09:55:18.915Z,72.60
2019-04-27T09:57:52.062Z,71.90
2019-04-27T10:00:31.097Z,71.50
2019-04-27T10:03:00.927Z,71.00
2019-04-27T10:05:31.340Z,71.90
2019-04-27T10:08:00.900Z,72.80
2019-04-27T10:10:38.848Z,72.90
2019-04-27T10:13:08.279Z,73.30
2019-04-27T10:15:47.577Z,74.00
2019-04-27T10:18:17.146Z,70.90
2019-04-27T10:20:58.684Z,69.50
2019-04-27T10:23:17.955Z,70.50
2019-04-27T10:25:47.878Z,71.70
2019-04-27T10:28:17.347Z,72.20
2019-04-27T10:30:50.254Z,71.30
2019-04-27T10:33:21.190Z,71.30
2019-04-27T10:35:49.992Z,70.50
2019-04-27T10:38:20.247Z,70.60
2019-04-27T10:40:50.916Z,70.50
2019-04-27T10:43:21.314Z,70.00
2019-04-27T10:45:54.304Z,70.30
2019-04-27T10:48:26.306Z,70.70
2019-04-27T10:50:55.616Z,70.00
2019-04-27T10:53:26.726Z,71.00
2019-04-27T10:55:56.527Z,72.80
2019-04-27T10:58:27.148Z,73.40
2019-04-27T11:00:58.476Z,73.90
2019-04-27T11:03:46.461Z,74.50
2019-04-27T11:06:20.906Z,75.80
2019-04-27T11:08:49.304Z,75.20
2019-04-27T11:11:18.111Z,75.70
2019-04-27T11:13:47.182Z,75.70
2019-04-27T11:16:20.498Z,75.20
2019-04-27T11:18:49.409Z,74.40
2019-04-27T11:21:17.759Z,75.90
2019-04-27T11:23:47.228Z,73.20
2019-04-27T11:26:16.913Z,73.30
2019-04-27T11:28:46.493Z,74.40
2019-04-27T11:31:17.285Z,75.10
2019-04-27T11:33:47.767Z,76.20
2019-04-27T11:36:20.573Z,76.40
2019-04-27T11:38:52.244Z,78.30
2019-04-27T11:41:22.903Z,78.10
2019-04-27T11:43:52.761Z,78.40
2019-04-27T11:46:21.773Z,77.70
2019-04-27T11:48:50.517Z,77.60
2019-04-27T11:51:19.545Z,78.40
2019-04-27T11:53:47.928Z,78.40
2019-04-27T11:56:17.767Z,79.50
2019-04-27T11:58:48.742Z,79.70
2019-04-27T12:01:18.100Z,79.50
2019-04-27T12:03:46.984Z,79.80
2019-04-27T12:06:17.793Z,81.00
2019-04-27T12:08:48.731Z,80.70
2019-04-27T12:11:18.046Z,81.40
2019-04-27T12:13:48.358Z,81.40
2019-04-27T12:16:20.531Z,82.70
2019-04-27T12:18:49.330Z,81.60
2019-04-27T12:21:20.430Z,80.90
2019-04-27T12:23:49.230Z,80.50
2019-04-27T12:26:29.176Z,80.00
2019-04-27T12:28:58.306Z,81.10
2019-04-27T12:31:35.788Z,79.80
2019-04-27T12:34:09.428Z,81.40
2019-04-27T12:36:41.212Z,82.60
2019-04-27T12:39:12.402Z,82.00
2019-04-27T12:41:41.901Z,82.80
2019-04-27T12:44:11.671Z,82.90
2019-04-27T12:46:40.694Z,83.40
2019-04-27T12:49:10.942Z,83.00
2019-04-27T12:51:40.440Z,82.50
2019-04-27T12:54:16.546Z,82.80
2019-04-27T12:56:53.398Z,82.20
2019-04-27T12:59:40.566Z,83.90
2019-04-27T13:02:13.477Z,85.00
2019-04-27T13:04:43.532Z,85.70
2019-04-27T13:07:11.579Z,84.50
2019-04-27T13:09:40.617Z,84.50
2019-04-27T13:12:09.730Z,83.90
2019-04-27T13:14:38.526Z,83.70
2019-04-27T13:17:08.053Z,84.10
2019-04-27T13:19:37.670Z,84.30
2019-04-27T13:22:16.557Z,84.20
2019-04-27T13:24:48.741Z,83.80
2019-04-27T13:27:20.201Z,84.50
2019-04-27T13:29:49.381Z,85.20
2019-04-27T13:32:18.624Z,87.10
2019-04-27T13:34:56.690Z,88.90
2019-04-27T13:37:33.452Z,90.00
2019-04-27T13:40:07.171Z,90.30
2019-04-27T13:42:40.353Z,90.50
2019-04-27T13:45:18.346Z,90.30
2019-04-27T13:47:56.214Z,90.60
2019-04-27T13:50:28.237Z,90.30
2019-04-27T13:53:00.286Z,90.60
2019-04-27T13:55:29.846Z,90.70
2019-04-27T13:58:01.610Z,90.70
2019-04-27T14:00:34.767Z,90.50
2019-04-27T14:03:04.997Z,90.50
2019-04-27T14:05:33.138Z,90.60
2019-04-27T14:08:04.941Z,90.50
2019-04-27T14:10:36.146Z,90.70
2019-04-27T14:13:06.404Z,90.90
2019-04-27T14:15:39.099Z,91.30
2019-04-27T14:18:14.212Z,90.70
2019-04-27T14:20:45.347Z,90.60
2019-04-27T14:23:18.960Z,90.10
2019-04-27T14:25:48.934Z,89.40
2019-04-27T14:28:18.340Z,88.20
2019-04-27T14:30:52.737Z,88.20
2019-04-27T14:33:22.202Z,87.70
2019-04-27T14:35:51.330Z,86.80
2019-04-27T14:38:24.044Z,86.90
2019-04-27T14:40:54.849Z,86.20
2019-04-27T14:43:28.703Z,85.60
2019-04-27T14:45:58.316Z,86.10
2019-04-27T14:48:31.659Z,87.10
2019-04-27T14:51:01.306Z,87.30
2019-04-27T14:53:38.575Z,87.10
2019-04-27T14:56:08.826Z,88.40
2019-04-27T14:58:40.508Z,87.90
2019-04-27T15:01:09.235Z,87.80
2019-04-27T15:03:37.859Z,87.60
2019-04-27T15:06:06.611Z,87.00
2019-04-27T15:08:38.339Z,86.70
2019-04-27T15:11:10.546Z,87.10
2019-04-27T15:13:49.997Z,86.80
2019-04-27T15:16:21.146Z,87.00
2019-04-27T15:18:53.265Z,87.40
2019-04-27T15:21:25.466Z,87.00
2019-04-27T15:23:53.351Z,87.10
2019-04-27T15:26:25.290Z,87.80
2019-04-27T15:28:57.920Z,87.70
2019-04-27T15:31:32.076Z,87.60
2019-04-27T15:34:03.153Z,88.10
2019-04-27T15:36:37.171Z,88.70
2019-04-27T15:39:10.845Z,89.20
2019-04-27T15:41:42.667Z,88.70
2019-04-27T15:44:13.001Z,89.10
2019-04-27T15:46:42.334Z,89.10
2019-04-27T15:49:12.425Z,89.40
2019-04-27T15:51:43.117Z,90.00
2019-04-27T15:54:13.273Z,90.00
2019-04-27T15:56:42.491Z,90.40
2019-04-27T15:59:14.373Z,90.60
2019-04-27T16:01:49.348Z,91.00
2019-04-27T16:04:18.009Z,91.00
2019-04-27T16:06:48.729Z,91.30
2019-04-27T16:09:24.337Z,91.30
2019-04-27T16:11:57.625Z,91.10
2019-04-27T16:14:20.461Z,91.30
2019-04-27T16:16:51.297Z,91.40
2019-04-27T16:19:20.589Z,91.60
2019-04-27T16:21:54.172Z,91.40
2019-04-27T16:24:21.115Z,91.80
2019-04-27T16:26:52.123Z,91.80
2019-04-27T16:29:23.119Z,92.20
2019-04-27T16:31:50.997Z,91.80
2019-04-27T16:34:20.374Z,91.90
2019-04-27T16:36:49.041Z,92.20
2019-04-27T16:39:18.100Z,92.20
2019-04-27T16:41:50.102Z,92.10
2019-04-27T16:44:19.867Z,92.30
2019-04-27T16:46:51.999Z,92.70
2019-04-27T16:49:19.696Z,92.60
2019-04-27T16:51:54.016Z,92.50
2019-04-27T16:54:25.312Z,92.60
2019-04-27T16:57:02.582Z,92.40
2019-04-27T16:59:42.318Z,92.50
2019-04-27T17:01:55.785Z,92.60
2019-04-27T17:04:24.884Z,92.40
2019-04-27T17:06:54.353Z,92.60
2019-04-27T17:09:23.809Z,92.70
2019-04-27T17:11:52.222Z,92.50
2019-04-27T17:14:28.991Z,92.80
2019-04-27T17:16:54.384Z,92.90
2019-04-27T17:19:28.655Z,93.20
2019-04-27T17:21:58.174Z,93.10
2019-04-27T17:24:43.816Z,93.50
2019-04-27T17:27:11.000Z,93.70
2019-04-27T17:29:39.693Z,93.70
2019-04-27T17:32:10.195Z,93.70
2019-04-27T17:34:39.715Z,94.00
2019-04-27T17:37:11.289Z,94.30
2019-04-27T17:39:40.284Z,94.50
2019-04-27T17:42:09.228Z,95.00
2019-04-27T17:44:39.921Z,94.60
2019-04-27T17:47:10.660Z,94.60
2019-04-27T17:49:48.761Z,94.40
2019-04-27T17:52:18.926Z,94.30
2019-04-27T17:54:52.949Z,94.40
2019-04-27T17:57:26.515Z,94.60
2019-04-27T17:59:58.750Z,94.60
2019-04-27T18:02:33.870Z,94.50
2019-04-27T18:05:09.621Z,94.50
2019-04-27T18:07:42.651Z,94.70
2019-04-27T18:10:19.133Z,94.50
2019-04-27T18:12:48.497Z,94.60
2019-04-27T18:15:16.390Z,94.70
2019-04-27T18:17:52.158Z,94.90
2019-04-27T18:20:23.060Z,95.00
2019-04-27T18:22:58.005Z,95.00
2019-04-27T18:25:28.534Z,95.00
2019-04-27T18:28:01.029Z,95.40
2019-04-27T18:30:38.124Z,95.10
2019-04-27T18:33:05.339Z,95.00
2019-04-27T18:35:33.463Z,95.00
2019-04-27T18:38:04.374Z,95.00
2019-04-27T18:40:38.444Z,94.70
2019-04-27T18:43:14.156Z,94.70
2019-04-27T18:45:46.158Z,94.90
2019-04-27T18:48:37.740Z,95.10
2019-04-27T18:51:15.346Z,95.20
2019-04-27T18:53:50.043Z,95.40
2019-04-27T18:56:19.668Z,95.70
2019-04-27T18:59:01.121Z,96.00
2019-04-27T19:01:36.771Z,95.90
2019-04-27T19:04:06.185Z,96.00
2019-04-27T19:06:41.013Z,96.50
2019-04-27T19:09:12.256Z,96.60
2019-04-27T19:11:54.097Z,96.60
2019-04-27T19:14:15.602Z,96.70
2019-04-27T19:16:48.504Z,96.90
2019-04-27T19:19:18.887Z,96.80
2019-04-27T19:21:48.585Z,96.90
2019-04-27T19:24:19.191Z,97.30
2019-04-27T19:26:52.171Z,96.90
2019-04-27T19:29:22.212Z,97.20
2019-04-27T19:31:53.286Z,97.30
2019-04-27T19:34:21.746Z,97.80
2019-04-27T19:36:50.938Z,97.80
2019-04-27T19:39:23.802Z,97.90
2019-04-27T19:42:00.458Z,98.10
2019-04-27T19:44:24.665Z,98.20
2019-04-27T19:46:54.117Z,98.00
2019-04-27T19:49:31.254Z,97.90
2019-04-27T19:52:02.743Z,98.00
2019-04-27T19:54:39.841Z,98.10
2019-04-27T19:57:11.359Z,98.10
2019-04-27T19:59:45.132Z,97.80
2019-04-27T20:02:20.305Z,97.70
2019-04-27T20:04:51.419Z,97.40
2019-04-27T20:07:20.548Z,97.50
2019-04-27T20:09:58.207Z,97.40
2019-04-27T20:12:33.673Z,97.40
2019-04-27T20:15:02.750Z,97.60
2019-04-27T20:17:32.095Z,97.10
2019-04-27T20:20:00.669Z,97.70
2019-04-27T20:22:37.277Z,97.30
2019-04-27T20:25:08.626Z,97.70
2019-04-27T20:27:46.136Z,97.80
2019-04-27T20:30:11.147Z,97.50
2019-04-27T20:32:40.396Z,97.50
2019-04-27T20:35:17.289Z,97.40
2019-04-27T20:37:48.012Z,97.50
2019-04-27T20:40:19.326Z,97.60
2019-04-27T20:42:48.926Z,97.30
2019-04-27T20:45:17.564Z,97.30
2019-04-27T20:47:46.470Z,97.50
2019-04-27T20:50:16.344Z,97.60
2019-04-27T20:52:53.196Z,97.60
2019-04-27T20:55:25.473Z,97.60
2019-04-27T20:58:02.068Z,97.50
2019-04-27T21:00:42.410Z,97.60
2019-04-27T21:03:23.167Z,97.40
2019-04-27T21:06:11.173Z,97.50
2019-04-27T21:08:42.436Z,97.30
2019-04-27T21:11:11.959Z,97.30
2019-04-27T21:13:43.122Z,97.30
2019-04-27T21:16:14.424Z,97.40
2019-04-27T21:18:49.483Z,97.30
2019-04-27T21:21:32.636Z,97.30
2019-04-27T21:24:03.413Z,97.40
2019-04-27T21:26:33.357Z,97.40
2019-04-27T21:29:02.782Z,97.50
2019-04-27T21:31:42.042Z,97.40
2019-04-27T21:34:11.362Z,97.40
2019-04-27T21:36:42.275Z,97.30
2019-04-27T21:39:11.727Z,97.40
2019-04-27T21:41:41.344Z,97.50
2019-04-27T21:44:13.670Z,97.70
2019-04-27T21:46:45.905Z,97.70
2019-04-27T21:49:14.486Z,97.60
2019-04-27T21:52:02.805Z,97.70
2019-04-27T21:54:33.174Z,98.10
2019-04-27T21:57:02.401Z,97.70
2019-04-27T21:59:31.249Z,97.60
2019-04-27T22:02:02.298Z,97.60
2019-04-27T22:04:31.565Z,97.70
2019-04-27T22:07:01.365Z,97.60
2019-04-27T22:09:31.842Z,97.80
2019-04-27T22:12:02.356Z,97.90
2019-04-27T22:14:32.065Z,98.00
2019-04-27T22:17:00.955Z,98.00
2019-04-27T22:19:30.921Z,97.80
2019-04-27T22:22:03.082Z,97.90
2019-04-27T22:24:42.861Z,98.10
2019-04-27T22:27:09.356Z,98.20
2019-04-27T22:29:38.319Z,98.10
2019-04-27T22:32:08.911Z,97.80
2019-04-27T22:34:37.720Z,98.00
2019-04-27T22:37:06.477Z,98.20
2019-04-27T22:39:37.036Z,98.10
2019-04-27T22:42:24.291Z,98.20
2019-04-27T22:44:54.583Z,98.20
2019-04-27T22:47:23.301Z,98.30
2019-04-27T22:49:52.252Z,98.20
2019-04-27T22:52:21.860Z,98.20
2019-04-27T22:54:51.318Z,98.10
2019-04-27T22:57:23.274Z,97.80
2019-04-27T22:59:56.971Z,98.00
2019-04-27T23:02:29.332Z,98.10
2019-04-27T23:05:02.119Z,97.90
2019-04-27T23:07:31.620Z,98.00
2019-04-27T23:10:01.626Z,98.00
2019-04-27T23:12:31.677Z,98.00
2019-04-27T23:15:01.123Z,98.40
2019-04-27T23:17:51.663Z,97.80
2019-04-27T23:20:20.893Z,97.70
2019-04-27T23:22:51.458Z,97.60
2019-04-27T23:25:20.672Z,97.60
2019-04-27T23:27:51.287Z,97.70
2019-04-27T23:30:36.678Z,97.80
2019-04-27T23:33:06.973Z,97.70
2019-04-27T23:35:36.875Z,97.40
2019-04-27T23:38:17.566Z,97.60
2019-04-27T23:40:39.544Z,97.70
2019-04-27T23:43:11.470Z,97.60
2019-04-27T23:45:41.903Z,97.60
2019-04-27T23:48:13.500Z,97.60
2019-04-27T23:50:55.025Z,97.70
2019-04-27T23:53:34.302Z,97.60
2019-04-27T23:56:13.847Z,97.70
2019-04-27T23:58:41.847Z,97.60
